Time;durP1;ratioP1;P1;durP2;ratioP2;P2;SDS_P1;SDS_P2;PMS_P1;PMS_P2;Temp;Humidity;BMP_temperature;BMP_pressure;BME280_temperature;BME280_humidity;BME280_pressure;Samples;Min_cycle;Max_cycle;Signal;HPM_P1;HPM_P2
2023/05/19 00:02:14;;;;;;;2.73;1.77;;;13.60;61.40;;;;;;5006072;28;20193;-64
2023/05/19 00:04:42;;;;;;;4.47;1.80;;;13.70;61.00;;;;;;5005196;28;20639;-66
2023/05/19 00:07:10;;;;;;;5.70;1.53;;;13.80;61.00;;;;;;4998128;28;20694;-70
2023/05/19 00:09:38;;;;;;;5.17;1.50;;;13.90;59.80;;;;;;5004666;28;20541;-72
2023/05/19 00:12:06;;;;;;;4.47;1.90;;;13.90;60.30;;;;;;5004047;28;20525;-67
2023/05/19 00:14:34;;;;;;;5.27;1.70;;;13.90;59.90;;;;;;5001197;28;20211;-68
2023/05/19 00:17:02;;;;;;;4.07;1.90;;;14.10;59.90;;;;;;5004610;28;20225;-70
2023/05/19 00:19:31;;;;;;;5.70;1.93;;;14.20;59.50;;;;;;5004041;28;20197;-68
2023/05/19 00:21:58;;;;;;;5.40;1.70;;;14.20;58.60;;;;;;5000754;28;20186;-73
2023/05/19 00:24:26;;;;;;;2.07;1.50;;;14.30;58.70;;;;;;5002681;28;20197;-68
2023/05/19 00:26:53;;;;;;;2.73;1.50;;;14.40;59.20;;;;;;5006986;28;20652;-67
2023/05/19 00:29:21;;;;;;;2.87;1.53;;;14.50;58.20;;;;;;5006195;28;20644;-69
2023/05/19 00:31:48;;;;;;;3.30;1.50;;;14.60;58.00;;;;;;5001476;28;20200;-65
2023/05/19 00:34:15;;;;;;;3.53;1.73;;;14.80;58.50;;;;;;5001348;28;20569;-69
2023/05/19 00:36:43;;;;;;;3.60;1.30;;;14.80;57.60;;;;;;5005994;28;20216;-66
2023/05/19 00:39:10;;;;;;;5.27;1.20;;;14.90;57.20;;;;;;5001539;28;20772;-70
2023/05/19 00:41:37;;;;;;;2.50;1.40;;;15.00;56.50;;;;;;5007957;28;20247;-71
2023/05/19 00:44:06;;;;;;;1.87;1.30;;;15.10;56.30;;;;;;5010805;28;20188;-65
2023/05/19 00:46:34;;;;;;;2.63;1.37;;;15.10;55.20;;;;;;5002807;28;20190;-70
2023/05/19 00:49:02;;;;;;;4.40;1.60;;;15.20;54.90;;;;;;5003136;28;20193;-68
2023/05/19 00:51:30;;;;;;;2.87;1.63;;;15.20;54.80;;;;;;5003340;28;20202;-69
2023/05/19 00:53:57;;;;;;;2.57;1.50;;;15.30;54.60;;;;;;5001607;28;20230;-68
2023/05/19 00:56:25;;;;;;;4.30;1.40;;;15.40;54.70;;;;;;5006129;28;20236;-64
2023/05/19 00:58:53;;;;;;;2.97;1.50;;;15.60;54.80;;;;;;5003719;28;20199;-70
2023/05/19 01:01:21;;;;;;;1.87;1.30;;;15.60;54.20;;;;;;5006685;28;20188;-69
2023/05/19 01:03:49;;;;;;;4.27;1.80;;;15.80;53.90;;;;;;4999790;28;20208;-70
2023/05/19 01:06:17;;;;;;;4.90;1.50;;;15.80;53.80;;;;;;5001629;28;20186;-66
2023/05/19 01:08:45;;;;;;;3.90;1.60;;;15.90;53.10;;;;;;5004792;28;20190;-64
2023/05/19 01:11:13;;;;;;;1.73;1.13;;;16.00;52.40;;;;;;5002755;28;20207;-68
2023/05/19 01:13:40;;;;;;;1.30;1.20;;;16.20;52.40;;;;;;5001958;28;20209;-65
2023/05/19 01:16:12;;;;;;;2.43;1.20;;;16.30;50.90;;;;;;5005091;28;20233;-65
2023/05/19 01:19:16;;;;;;;4.70;1.33;;;16.40;50.50;;;;;;5002075;28;20188;-64
2023/05/19 01:22:22;;;;;;;2.87;0.90;;;16.50;50.30;;;;;;4998999;28;20204;-65
2023/05/19 01:24:49;;;;;;;3.43;1.17;;;16.60;49.00;;;;;;5001978;28;20196;-64
2023/05/19 01:28:04;;;;;;;4.00;1.20;;;16.70;48.20;;;;;;5001865;28;20302;-65
2023/05/19 01:30:37;;;;;;;6.33;1.20;;;16.70;48.10;;;;;;4997789;28;20184;-66
2023/05/19 01:33:08;;;;;;;1.83;1.27;;;16.90;47.70;;;;;;5005978;28;20173;-66
2023/05/19 01:35:38;;;;;;;2.03;0.90;;;16.90;45.90;;;;;;5005442;28;20199;-65
2023/05/19 01:38:10;;;;;;;1.70;0.80;;;17.00;44.80;;;;;;5004640;28;20177;-65
2023/05/19 01:40:40;;;;;;;0.87;0.83;;;17.30;44.90;;;;;;5005312;28;20236;-64
2023/05/19 01:43:11;;;;;;;1.97;1.13;;;17.30;43.70;;;;;;5001811;28;20206;-68
2023/05/19 01:45:39;;;;;;;1.90;0.90;;;17.30;45.10;;;;;;5002834;28;20199;-69
2023/05/19 01:48:07;;;;;;;2.53;1.00;;;17.20;44.70;;;;;;5004609;28;20651;-63
2023/05/19 01:50:35;;;;;;;1.30;0.90;;;17.30;45.20;;;;;;5004670;28;20173;-64
2023/05/19 01:53:02;;;;;;;1.27;0.87;;;17.20;44.30;;;;;;5003070;28;20183;-64
2023/05/19 01:55:30;;;;;;;1.33;0.90;;;17.60;43.80;;;;;;5001624;28;20249;-64
2023/05/19 01:58:33;;;;;;;1.47;1.00;;;17.40;43.10;;;;;;5004052;28;20201;-64
2023/05/19 02:01:19;;;;;;;2.97;1.03;;;17.70;42.90;;;;;;5004466;28;20540;-64
2023/05/19 02:04:12;;;;;;;2.17;1.13;;;18.00;42.40;;;;;;5001543;28;20209;-64
2023/05/19 02:06:46;;;;;;;1.17;0.90;;;18.10;41.70;;;;;;4999350;28;20204;-64
2023/05/19 02:09:25;;;;;;;1.70;0.83;;;18.10;42.10;;;;;;5010967;28;20538;-62
2023/05/19 02:12:10;;;;;;;1.00;0.70;;;17.80;41.70;;;;;;5005324;28;20676;-62
2023/05/19 02:14:47;;;;;;;1.40;0.80;;;17.90;41.50;;;;;;5007346;28;20217;-63
2023/05/19 02:17:16;;;;;;;1.10;0.70;;;18.00;41.80;;;;;;5007102;28;20307;-63
2023/05/19 02:19:43;;;;;;;1.97;0.90;;;18.10;42.30;;;;;;5003414;28;20185;-63
2023/05/19 02:22:11;;;;;;;1.77;0.83;;;18.20;42.10;;;;;;5006323;28;20193;-65
2023/05/19 02:24:40;;;;;;;3.13;0.90;;;18.10;41.10;;;;;;5008283;28;20220;-70
2023/05/19 02:27:07;;;;;;;1.30;1.00;;;17.80;41.00;;;;;;5006747;28;20311;-66
2023/05/19 02:29:35;;;;;;;1.43;0.90;;;18.10;41.00;;;;;;5009590;28;20182;-64
2023/05/19 02:32:02;;;;;;;1.10;0.87;;;18.50;41.60;;;;;;5003012;28;20177;-64
2023/05/19 02:34:29;;;;;;;1.60;0.90;;;18.80;40.80;;;;;;5005227;28;20344;-68
2023/05/19 02:36:56;;;;;;;1.37;0.97;;;18.50;39.80;;;;;;5007720;28;20502;-67
2023/05/19 02:39:25;;;;;;;3.37;0.97;;;18.30;39.90;;;;;;5003762;28;20201;-65
2023/05/19 02:41:52;;;;;;;1.20;0.70;;;18.40;39.90;;;;;;5002612;28;20798;-63
2023/05/19 02:44:20;;;;;;;4.13;1.10;;;18.50;38.50;;;;;;5002674;28;20268;-64
2023/05/19 02:46:47;;;;;;;1.63;0.87;;;18.40;39.00;;;;;;5003305;28;20288;-63
2023/05/19 02:49:15;;;;;;;1.53;1.13;;;18.70;37.50;;;;;;5007154;28;20672;-68
2023/05/19 02:51:42;;;;;;;3.17;0.80;;;18.50;38.20;;;;;;5000472;28;20182;-65
2023/05/19 02:54:09;;;;;;;3.47;0.90;;;18.40;38.20;;;;;;5006881;28;20684;-66
2023/05/19 02:56:37;;;;;;;4.07;1.07;;;18.50;39.20;;;;;;5003274;28;20239;-69
2023/05/19 02:59:05;;;;;;;1.50;1.20;;;18.60;38.80;;;;;;4999349;28;20186;-65
2023/05/19 03:01:32;;;;;;;4.60;1.10;;;19.00;38.90;;;;;;5009468;28;20610;-66
2023/05/19 03:04:00;;;;;;;1.73;0.90;;;19.30;39.00;;;;;;5002942;28;20186;-64
2023/05/19 03:06:28;;;;;;;1.03;0.90;;;19.60;37.90;;;;;;5006309;28;20204;-64
2023/05/19 03:08:55;;;;;;;2.87;1.00;;;19.70;37.20;;;;;;5004890;28;20268;-63
2023/05/19 03:11:22;;;;;;;1.60;0.90;;;19.30;38.50;;;;;;5002948;28;20194;-64
2023/05/19 03:13:50;;;;;;;2.63;1.23;;;19.50;38.70;;;;;;5008011;28;20323;-63
2023/05/19 03:16:17;;;;;;;3.03;0.80;;;20.00;38.50;;;;;;5007604;28;20225;-64
2023/05/19 03:18:45;;;;;;;2.20;1.00;;;20.30;38.00;;;;;;5004598;28;20678;-64
2023/05/19 03:21:12;;;;;;;2.77;1.00;;;20.10;36.20;;;;;;5010722;28;20208;-64
2023/05/19 03:23:40;;;;;;;1.43;1.00;;;20.00;37.00;;;;;;5003612;28;20225;-63
2023/05/19 03:26:07;;;;;;;2.00;0.93;;;20.00;37.20;;;;;;5003335;28;20228;-66
2023/05/19 03:28:34;;;;;;;1.57;0.90;;;20.10;37.20;;;;;;5005818;28;20230;-63
2023/05/19 03:31:02;;;;;;;3.03;1.50;;;19.90;36.10;;;;;;5002063;28;20186;-63
2023/05/19 03:33:29;;;;;;;1.87;0.83;;;20.30;36.10;;;;;;5002302;28;20546;-64
2023/05/19 03:35:57;;;;;;;2.20;1.00;;;20.30;35.10;;;;;;5003823;28;20581;-68
2023/05/19 03:38:25;;;;;;;1.90;0.90;;;20.50;34.50;;;;;;5004152;28;20253;-64
2023/05/19 03:40:52;;;;;;;2.73;0.73;;;20.20;33.80;;;;;;5003919;28;20193;-63
2023/05/19 03:43:20;;;;;;;1.67;0.93;;;20.40;34.00;;;;;;5000696;28;20576;-64
2023/05/19 03:45:47;;;;;;;2.03;0.80;;;20.80;32.60;;;;;;5004694;28;20194;-64
2023/05/19 03:48:14;;;;;;;1.50;0.93;;;20.80;33.50;;;;;;5004727;28;20288;-66
2023/05/19 03:50:43;;;;;;;4.37;0.87;;;20.90;33.30;;;;;;5006265;28;20193;-64
2023/05/19 03:53:10;;;;;;;2.37;1.00;;;21.20;33.10;;;;;;5001234;28;20215;-64
2023/05/19 03:55:38;;;;;;;2.97;0.70;;;21.00;32.80;;;;;;5002913;28;20710;-64
2023/05/19 03:58:05;;;;;;;1.50;0.80;;;21.40;32.50;;;;;;5007427;28;20672;-66
2023/05/19 04:00:32;;;;;;;1.37;0.90;;;22.10;31.50;;;;;;5004411;28;20603;-66
2023/05/19 04:03:00;;;;;;;3.43;0.87;;;22.10;31.20;;;;;;5002764;28;20181;-73
2023/05/19 04:05:27;;;;;;;2.70;1.00;;;21.80;32.20;;;;;;5009115;28;20209;-64
2023/05/19 04:07:54;;;;;;;1.27;0.80;;;22.20;31.60;;;;;;5002125;28;20190;-72
2023/05/19 04:10:22;;;;;;;2.90;0.70;;;22.20;30.70;;;;;;5002251;28;20663;-67
2023/05/19 04:12:49;;;;;;;1.53;0.90;;;21.70;31.00;;;;;;5006340;28;20189;-64
2023/05/19 04:15:17;;;;;;;1.53;0.93;;;21.80;30.70;;;;;;5005560;28;20226;-64
2023/05/19 04:17:44;;;;;;;1.93;0.70;;;21.90;30.20;;;;;;5000938;28;20205;-63
2023/05/19 04:20:15;;;;;;;5.17;0.97;;;22.30;30.60;;;;;;5006007;28;20201;-64
2023/05/19 04:22:42;;;;;;;2.87;0.87;;;22.40;29.80;;;;;;5008068;28;20672;-63
2023/05/19 04:25:10;;;;;;;2.17;0.90;;;22.70;29.50;;;;;;5002030;28;20193;-65
2023/05/19 04:27:38;;;;;;;3.10;0.80;;;22.50;30.00;;;;;;5006815;28;20184;-63
2023/05/19 04:30:07;;;;;;;1.33;0.80;;;22.30;29.30;;;;;;5006895;28;20197;-64
2023/05/19 04:32:36;;;;;;;2.70;0.80;;;22.50;29.50;;;;;;5007961;28;20183;-65
2023/05/19 04:35:03;;;;;;;3.40;0.70;;;23.20;28.50;;;;;;5004120;28;20221;-68
2023/05/19 04:37:31;;;;;;;2.03;0.70;;;23.60;27.70;;;;;;5008942;28;20188;-65
2023/05/19 04:39:58;;;;;;;3.87;0.80;;;24.20;27.60;;;;;;5001011;28;20193;-67
2023/05/19 04:42:29;;;;;;;1.80;0.80;;;24.10;27.20;;;;;;5004818;28;20184;-64
2023/05/19 04:44:56;;;;;;;2.93;0.90;;;23.50;28.60;;;;;;5002229;28;20251;-71
2023/05/19 04:47:26;;;;;;;2.97;0.80;;;24.30;27.40;;;;;;5006602;28;20647;-64
2023/05/19 04:49:54;;;;;;;2.33;0.80;;;23.80;27.40;;;;;;5006480;28;20724;-65
2023/05/19 04:52:22;;;;;;;0.70;0.60;;;24.70;26.50;;;;;;5001848;28;20193;-66
2023/05/19 04:54:49;;;;;;;1.03;0.73;;;24.20;26.40;;;;;;5009244;28;20232;-64
2023/05/19 04:57:17;;;;;;;1.03;0.87;;;23.80;26.40;;;;;;5004799;28;20224;-64
2023/05/19 04:59:45;;;;;;;1.83;0.80;;;23.90;26.60;;;;;;5003447;28;20191;-63
2023/05/19 05:02:12;;;;;;;2.90;0.83;;;23.60;26.40;;;;;;5004465;28;20623;-64
2023/05/19 05:04:42;;;;;;;1.40;0.80;;;23.80;26.80;;;;;;5004297;28;20185;-63
2023/05/19 05:07:10;;;;;;;7.17;0.80;;;24.10;26.70;;;;;;5001737;28;20185;-64
2023/05/19 05:09:37;;;;;;;1.27;0.60;;;24.30;27.00;;;;;;5008286;28;20193;-64
2023/05/19 05:12:06;;;;;;;4.03;0.97;;;24.10;25.60;;;;;;5003441;28;20188;-64
2023/05/19 05:14:34;;;;;;;1.33;0.57;;;23.80;26.60;;;;;;5005327;28;20267;-65
2023/05/19 05:17:02;;;;;;;1.53;0.60;;;24.00;26.10;;;;;;5004739;28;20221;-70
2023/05/19 05:19:29;;;;;;;1.17;0.60;;;23.60;26.70;;;;;;5004514;28;20686;-63
2023/05/19 05:21:57;;;;;;;3.37;0.80;;;23.70;26.60;;;;;;5002960;28;20189;-67
2023/05/19 05:24:24;;;;;;;2.43;0.67;;;23.60;26.80;;;;;;5003673;28;20228;-65
2023/05/19 05:26:52;;;;;;;4.37;0.83;;;23.60;26.60;;;;;;5000745;28;20181;-65
2023/05/19 05:29:20;;;;;;;4.43;1.07;;;24.00;25.70;;;;;;5000464;28;20589;-64
2023/05/19 05:31:48;;;;;;;1.83;0.70;;;23.60;26.30;;;;;;5000934;28;20244;-64
2023/05/19 05:34:16;;;;;;;3.67;0.90;;;24.00;26.00;;;;;;5002015;28;20220;-64
2023/05/19 05:36:43;;;;;;;1.33;0.90;;;24.30;26.40;;;;;;5007080;28;20186;-65
2023/05/19 05:39:11;;;;;;;1.73;0.83;;;23.90;26.50;;;;;;5002574;28;20530;-65
2023/05/19 05:41:38;;;;;;;2.03;0.70;;;23.20;27.20;;;;;;5006280;28;20182;-65
2023/05/19 05:44:05;;;;;;;1.80;0.70;;;23.30;26.70;;;;;;5009072;28;20182;-64
2023/05/19 05:46:33;;;;;;;2.43;0.87;;;23.20;27.30;;;;;;5006460;28;20208;-65
2023/05/19 05:49:00;;;;;;;1.53;0.80;;;23.30;27.50;;;;;;5003934;28;20190;-65
2023/05/19 05:51:27;;;;;;;1.53;0.80;;;23.50;27.30;;;;;;5005467;28;20208;-65
2023/05/19 05:53:56;;;;;;;1.00;0.80;;;24.00;26.60;;;;;;5010404;28;20261;-64
2023/05/19 05:56:25;;;;;;;1.13;0.63;;;23.80;26.80;;;;;;5007928;28;20174;-63
2023/05/19 05:58:53;;;;;;;1.77;0.70;;;23.80;26.60;;;;;;5004540;28;20191;-64
2023/05/19 06:01:20;;;;;;;3.07;0.90;;;23.80;26.90;;;;;;5011392;28;20193;-64
2023/05/19 06:03:48;;;;;;;2.50;0.93;;;23.60;27.50;;;;;;5007455;28;20188;-63
2023/05/19 06:06:15;;;;;;;1.10;0.80;;;23.00;28.30;;;;;;5007069;28;20181;-63
2023/05/19 06:08:42;;;;;;;1.27;0.77;;;22.10;29.50;;;;;;5010639;28;20212;-62
2023/05/19 06:11:09;;;;;;;1.03;0.70;;;21.40;31.10;;;;;;5006154;28;20216;-63
2023/05/19 06:13:37;;;;;;;1.27;0.90;;;21.10;30.90;;;;;;5005184;28;20215;-63
2023/05/19 06:16:05;;;;;;;1.67;1.00;;;21.30;31.40;;;;;;5006165;28;20592;-63
2023/05/19 06:18:33;;;;;;;3.23;0.70;;;20.20;32.10;;;;;;5007734;28;20264;-63
2023/05/19 06:21:00;;;;;;;1.47;0.80;;;19.70;33.70;;;;;;5009177;28;20197;-62
2023/05/19 06:23:28;;;;;;;2.60;1.00;;;19.40;34.30;;;;;;5002767;28;20228;-64
2023/05/19 06:25:55;;;;;;;1.00;0.80;;;19.20;35.60;;;;;;5008955;28;20193;-63
2023/05/19 06:28:22;;;;;;;1.43;0.87;;;19.00;36.40;;;;;;5007665;28;20277;-63
2023/05/19 06:30:50;;;;;;;1.60;1.00;;;18.80;37.50;;;;;;5006601;28;20204;-63
2023/05/19 06:33:17;;;;;;;2.70;1.10;;;18.70;37.10;;;;;;5009893;28;20188;-64
2023/05/19 06:35:44;;;;;;;2.30;1.17;;;18.50;38.00;;;;;;5005169;28;20216;-64
2023/05/19 06:38:12;;;;;;;3.43;1.10;;;18.30;39.10;;;;;;5006936;28;20586;-63
2023/05/19 06:40:39;;;;;;;3.47;1.53;;;18.20;41.20;;;;;;5005442;28;20190;-66
2023/05/19 06:43:07;;;;;;;2.33;1.20;;;18.00;44.00;;;;;;5000731;28;20192;-63
2023/05/19 06:45:34;;;;;;;6.60;1.70;;;17.80;45.90;;;;;;5004398;28;20190;-65
2023/05/19 06:48:02;;;;;;;4.47;1.77;;;17.70;47.40;;;;;;5005368;28;20648;-64
2023/05/19 06:50:29;;;;;;;9.07;2.27;;;17.50;48.80;;;;;;5006315;28;20199;-62
2023/05/19 06:52:57;;;;;;;7.00;2.50;;;17.30;51.30;;;;;;5003624;28;20181;-63
2023/05/19 06:55:24;;;;;;;4.50;2.43;;;17.10;52.50;;;;;;5005714;28;20695;-64
2023/05/19 06:57:51;;;;;;;6.03;1.90;;;17.00;53.50;;;;;;5009326;28;20186;-63
2023/05/19 07:00:19;;;;;;;5.03;2.43;;;16.80;53.90;;;;;;5004184;28;20212;-68
2023/05/19 07:02:46;;;;;;;5.03;2.30;;;16.70;55.00;;;;;;5008922;28;20212;-63
2023/05/19 07:05:14;;;;;;;6.13;1.97;;;16.50;55.60;;;;;;5006935;28;20655;-63
2023/05/19 07:07:41;;;;;;;7.13;2.37;;;16.40;56.10;;;;;;5008524;28;20185;-63
2023/05/19 07:10:09;;;;;;;9.37;2.80;;;16.30;56.80;;;;;;5005123;28;20271;-62
2023/05/19 07:12:36;;;;;;;4.70;2.00;;;16.20;57.50;;;;;;5000343;28;20182;-62
2023/05/19 07:15:04;;;;;;;3.30;1.80;;;16.10;57.80;;;;;;5005706;28;20683;-63
2023/05/19 07:17:31;;;;;;;5.73;1.70;;;16.10;58.10;;;;;;5005860;28;20229;-65
2023/05/19 07:20:00;;;;;;;6.67;2.63;;;16.00;58.50;;;;;;5001423;28;20193;-64
2023/05/19 07:22:28;;;;;;;6.87;1.93;;;15.90;59.00;;;;;;5005794;28;20564;-62
2023/05/19 07:24:56;;;;;;;6.80;2.30;;;15.70;59.40;;;;;;5005415;28;20231;-63
2023/05/19 07:27:23;;;;;;;6.67;2.40;;;15.70;60.00;;;;;;5004296;28;20194;-64
2023/05/19 07:29:50;;;;;;;4.73;2.13;;;15.60;60.30;;;;;;5007052;28;20573;-66
2023/05/19 07:32:18;;;;;;;5.53;2.27;;;15.50;60.70;;;;;;5003487;28;20195;-66
2023/05/19 07:34:45;;;;;;;5.33;2.07;;;15.30;61.10;;;;;;5003715;28;20250;-66
2023/05/19 07:37:12;;;;;;;4.70;2.27;;;15.30;61.50;;;;;;5000134;28;20270;-64
2023/05/19 07:39:40;;;;;;;6.13;2.10;;;15.20;61.90;;;;;;5002488;28;20203;-62
2023/05/19 07:42:07;;;;;;;9.93;2.33;;;15.20;62.10;;;;;;5003458;28;20186;-63
2023/05/19 07:44:34;;;;;;;4.83;2.30;;;15.10;62.50;;;;;;5001015;28;20252;-62
2023/05/19 07:47:02;;;;;;;6.73;3.53;;;15.00;62.90;;;;;;5002273;28;20249;-63
2023/05/19 07:49:29;;;;;;;6.67;3.90;;;15.00;63.10;;;;;;4999360;28;20248;-64
2023/05/19 07:51:57;;;;;;;10.47;4.13;;;14.90;63.70;;;;;;5007099;28;20188;-63
2023/05/19 07:54:24;;;;;;;9.83;4.30;;;14.90;63.80;;;;;;5004540;28;20215;-63
2023/05/19 07:56:52;;;;;;;13.10;7.47;;;14.80;64.00;;;;;;5005867;28;20232;-63
2023/05/19 07:59:19;;;;;;;22.03;13.47;;;14.80;65.00;;;;;;5002013;28;20664;-62
2023/05/19 08:01:46;;;;;;;23.70;12.23;;;14.80;64.90;;;;;;5005586;28;20657;-64
2023/05/19 08:04:14;;;;;;;10.33;7.30;;;14.80;64.80;;;;;;5004418;28;20189;-62
2023/05/19 08:06:43;;;;;;;15.13;6.27;;;14.70;64.60;;;;;;5000766;28;20181;-63
2023/05/19 08:09:10;;;;;;;15.87;6.30;;;14.60;64.90;;;;;;5001122;28;20192;-64
2023/05/19 08:11:38;;;;;;;12.50;5.70;;;14.50;65.30;;;;;;5003304;28;20185;-63
2023/05/19 08:14:05;;;;;;;14.77;4.93;;;14.50;65.80;;;;;;5000939;28;20219;-63
2023/05/19 08:16:32;;;;;;;12.00;4.90;;;14.40;66.00;;;;;;5007060;28;20227;-66
2023/05/19 08:19:01;;;;;;;11.27;4.37;;;14.40;66.20;;;;;;5003610;28;20197;-62
2023/05/19 08:21:28;;;;;;;14.93;8.23;;;14.40;66.40;;;;;;5001805;28;20186;-63
2023/05/19 08:23:56;;;;;;;15.63;8.53;;;14.30;66.50;;;;;;5002696;28;20193;-68
2023/05/19 08:26:23;;;;;;;11.40;7.40;;;14.30;66.70;;;;;;5005728;28;20203;-68
2023/05/19 08:28:51;;;;;;;16.13;7.93;;;14.30;67.70;;;;;;4999978;28;20205;-65
2023/05/19 08:31:18;;;;;;;12.77;6.13;;;14.30;68.00;;;;;;5000690;28;20604;-66
2023/05/19 08:33:45;;;;;;;16.97;6.47;;;14.30;67.90;;;;;;5007055;28;20827;-69
2023/05/19 08:36:13;;;;;;;14.30;6.47;;;14.30;67.40;;;;;;5003928;28;20212;-67
2023/05/19 08:38:40;;;;;;;17.30;6.63;;;14.20;67.60;;;;;;5002722;28;20250;-67
2023/05/19 08:41:07;;;;;;;16.60;6.80;;;14.20;67.70;;;;;;5002851;28;20220;-64
2023/05/19 08:43:35;;;;;;;21.87;8.77;;;14.10;67.70;;;;;;5002722;28;20232;-62
2023/05/19 08:46:06;;;;;;;24.97;11.60;;;14.00;67.80;;;;;;5005097;28;20181;-67
2023/05/19 08:48:38;;;;;;;22.10;10.73;;;14.00;68.10;;;;;;5003161;28;20239;-63
2023/05/19 08:51:28;;;;;;;17.77;9.63;;;14.00;68.00;;;;;;4999180;28;20186;-63
2023/05/19 08:54:12;;;;;;;18.80;9.80;;;14.00;68.40;;;;;;5002677;28;20206;-63
2023/05/19 08:56:39;;;;;;;19.77;9.50;;;14.00;68.80;;;;;;5003305;28;20189;-66
2023/05/19 08:59:08;;;;;;;18.67;8.70;;;13.90;69.30;;;;;;4997975;28;20224;-67
2023/05/19 09:01:35;;;;;;;18.87;8.90;;;13.80;69.40;;;;;;5004408;28;20272;-66
2023/05/19 09:04:03;;;;;;;17.30;8.70;;;13.80;70.00;;;;;;5000941;28;20185;-62
2023/05/19 09:06:34;;;;;;;16.10;8.83;;;13.80;69.70;;;;;;5006833;28;20180;-63
2023/05/19 09:09:03;;;;;;;18.13;8.77;;;13.70;69.90;;;;;;5004109;28;20243;-62
2023/05/19 09:11:30;;;;;;;23.10;10.00;;;13.70;69.80;;;;;;5003757;28;20181;-65
2023/05/19 09:13:57;;;;;;;21.87;9.80;;;13.70;70.10;;;;;;5001751;28;20219;-62
2023/05/19 09:16:25;;;;;;;20.57;9.80;;;13.70;70.50;;;;;;5006327;28;20645;-69
2023/05/19 09:18:59;;;;;;;19.90;8.77;;;13.70;70.40;;;;;;5010260;28;20220;-65
2023/05/19 09:21:31;;;;;;;19.03;9.67;;;13.60;70.60;;;;;;5009731;28;20270;-64
2023/05/19 09:24:06;;;;;;;26.53;10.57;;;13.50;70.80;;;;;;5002229;28;20201;-63
2023/05/19 09:26:38;;;;;;;17.03;9.10;;;13.50;71.10;;;;;;5003336;28;20537;-62
2023/05/19 09:29:16;;;;;;;22.07;9.83;;;13.40;71.20;;;;;;5004682;28;20712;-63
2023/05/19 09:32:05;;;;;;;22.47;10.00;;;13.40;71.50;;;;;;5010487;28;20178;-64
2023/05/19 09:34:32;;;;;;;18.40;9.80;;;13.40;71.70;;;;;;5005859;28;20303;-65
2023/05/19 09:37:00;;;;;;;18.70;9.57;;;13.30;72.00;;;;;;5003350;28;20197;-65
2023/05/19 09:39:27;;;;;;;22.17;8.43;;;13.30;71.90;;;;;;5007792;28;20412;-63
2023/05/19 09:41:58;;;;;;;16.03;7.37;;;13.30;71.70;;;;;;5006310;28;20189;-63
2023/05/19 09:44:30;;;;;;;18.27;8.27;;;13.30;71.40;;;;;;5003030;28;20192;-64
2023/05/19 09:46:58;;;;;;;13.23;7.60;;;13.10;71.80;;;;;;5001789;28;20239;-63
2023/05/19 09:49:29;;;;;;;11.13;6.50;;;13.10;72.80;;;;;;5006673;28;20645;-63
2023/05/19 09:51:57;;;;;;;12.20;6.87;;;13.00;73.40;;;;;;5005472;28;20181;-68
2023/05/19 09:54:30;;;;;;;15.60;6.67;;;13.00;73.20;;;;;;5004429;28;20216;-65
2023/05/19 09:57:05;;;;;;;17.47;9.30;;;12.90;73.10;;;;;;5006179;28;20284;-62
2023/05/19 09:59:33;;;;;;;18.73;9.83;;;12.90;73.20;;;;;;5008294;28;20188;-63
2023/05/19 10:02:01;;;;;;;14.43;7.97;;;12.90;73.20;;;;;;5006878;28;20663;-62
2023/05/19 10:04:30;;;;;;;18.67;9.10;;;12.80;73.40;;;;;;5003260;28;20189;-62
2023/05/19 10:07:04;;;;;;;16.30;10.17;;;12.80;73.80;;;;;;5006427;28;20182;-64
2023/05/19 10:09:33;;;;;;;18.77;8.57;;;12.80;73.90;;;;;;5004347;28;20185;-63
2023/05/19 10:12:01;;;;;;;15.67;7.90;;;12.70;74.20;;;;;;5008696;28;20188;-62
2023/05/19 10:14:29;;;;;;;16.13;8.77;;;12.70;74.50;;;;;;5006943;28;20304;-63
2023/05/19 10:16:58;;;;;;;17.97;8.43;;;12.70;74.60;;;;;;5006106;28;20359;-66
2023/05/19 10:19:27;;;;;;;13.57;7.73;;;12.70;74.40;;;;;;5008257;28;20242;-68
2023/05/19 10:21:56;;;;;;;10.47;6.17;;;12.60;74.90;;;;;;5005473;28;20177;-68
2023/05/19 10:24:23;;;;;;;9.60;5.40;;;12.70;74.90;;;;;;5005116;28;20181;-68
2023/05/19 10:27:00;;;;;;;10.93;5.87;;;12.60;75.10;;;;;;5008462;28;20235;-62
2023/05/19 10:29:30;;;;;;;9.20;5.57;;;12.60;75.10;;;;;;5005075;28;20682;-62
2023/05/19 10:32:10;;;;;;;14.40;7.70;;;12.50;75.10;;;;;;5002660;28;20658;-63
2023/05/19 10:34:59;;;;;;;12.77;8.40;;;12.50;75.10;;;;;;5002224;28;20213;-62
2023/05/19 10:38:06;;;;;;;17.13;8.03;;;12.50;75.10;;;;;;5005674;28;20330;-67
2023/05/19 10:40:53;;;;;;;15.60;6.53;;;12.40;74.80;;;;;;5005227;28;20279;-62
2023/05/19 10:43:38;;;;;;;12.53;6.43;;;12.40;75.40;;;;;;5000263;28;20177;-65
2023/05/19 10:46:05;;;;;;;15.73;6.97;;;12.40;75.30;;;;;;5006112;28;20181;-64
2023/05/19 10:48:36;;;;;;;13.80;7.90;;;12.30;75.20;;;;;;5007359;28;20189;-64
2023/05/19 10:51:03;;;;;;;16.40;7.87;;;12.30;75.10;;;;;;5004630;28;20526;-66
2023/05/19 10:53:36;;;;;;;11.97;7.43;;;12.30;75.50;;;;;;5005389;28;20304;-66
2023/05/19 10:56:03;;;;;;;17.17;7.73;;;12.30;76.10;;;;;;5002561;28;20189;-64
2023/05/19 10:58:49;;;;;;;12.03;6.80;;;12.20;76.40;;;;;;5007184;28;20639;-62
2023/05/19 11:01:19;;;;;;;12.63;7.10;;;12.10;76.10;;;;;;5005185;28;20193;-67
2023/05/19 11:03:48;;;;;;;14.20;7.23;;;12.00;76.70;;;;;;5004842;28;20177;-66
2023/05/19 11:06:19;;;;;;;15.47;7.17;;;12.00;76.80;;;;;;5005861;28;20217;-62
2023/05/19 11:08:49;;;;;;;14.37;6.73;;;11.90;76.70;;;;;;5005242;28;20186;-67
2023/05/19 11:11:17;;;;;;;15.47;7.17;;;11.90;77.20;;;;;;5003988;28;20830;-63
2023/05/19 11:13:51;;;;;;;12.43;6.67;;;11.80;77.30;;;;;;5005014;28;20668;-64
2023/05/19 11:16:29;;;;;;;14.53;6.53;;;11.80;77.40;;;;;;5005951;28;20295;-62
2023/05/19 11:18:59;;;;;;;11.77;6.77;;;11.80;77.10;;;;;;5005118;28;20278;-64
2023/05/19 11:21:51;;;;;;;13.83;7.10;;;11.90;77.70;;;;;;5001421;28;20550;-63
2023/05/19 11:24:43;;;;;;;11.20;6.43;;;11.80;77.00;;;;;;5004823;28;20216;-63
2023/05/19 11:27:27;;;;;;;10.53;6.20;;;11.80;77.40;;;;;;4999606;28;20182;-63
2023/05/19 11:29:58;;;;;;;12.53;6.67;;;11.80;77.00;;;;;;5001386;28;20675;-63
2023/05/19 11:32:34;;;;;;;12.30;6.23;;;11.70;77.10;;;;;;5006721;28;20221;-69
2023/05/19 11:35:02;;;;;;;14.37;6.67;;;11.60;77.00;;;;;;5006619;28;20224;-64
2023/05/19 11:37:33;;;;;;;13.23;6.67;;;11.70;77.70;;;;;;5002891;28;20182;-64
2023/05/19 11:40:08;;;;;;;14.23;7.40;;;11.60;77.60;;;;;;5003556;28;20177;-64
2023/05/19 11:42:36;;;;;;;13.30;6.47;;;11.60;77.50;;;;;;5005228;28;20181;-62
2023/05/19 11:45:05;;;;;;;15.53;6.97;;;11.50;77.70;;;;;;5009055;28;20180;-63
2023/05/19 11:47:33;;;;;;;11.33;7.03;;;11.50;77.80;;;;;;5003534;28;20185;-63
2023/05/19 11:50:00;;;;;;;15.00;7.80;;;11.40;78.20;;;;;;5005879;28;20175;-62
2023/05/19 11:52:27;;;;;;;15.90;7.60;;;11.50;78.50;;;;;;5000806;28;20196;-63
2023/05/19 11:54:55;;;;;;;13.47;7.30;;;11.40;78.60;;;;;;5000239;28;20676;-64
2023/05/19 11:57:23;;;;;;;13.00;7.70;;;11.30;78.80;;;;;;5009608;28;20185;-63
2023/05/19 11:59:52;;;;;;;17.60;8.10;;;11.30;79.40;;;;;;5006212;28;20190;-63
2023/05/19 12:02:23;;;;;;;14.27;7.93;;;11.20;80.10;;;;;;5003091;28;20201;-62
2023/05/19 12:04:51;;;;;;;16.87;8.23;;;11.20;80.20;;;;;;5004730;28;20190;-63
2023/05/19 12:07:23;;;;;;;11.83;8.07;;;11.20;80.40;;;;;;5005191;28;20189;-63
2023/05/19 12:09:51;;;;;;;15.77;8.57;;;11.10;80.80;;;;;;5002409;28;20194;-63
2023/05/19 12:12:22;;;;;;;16.43;8.40;;;11.10;81.00;;;;;;5006973;28;20196;-63
2023/05/19 12:14:52;;;;;;;19.03;8.40;;;11.00;81.50;;;;;;5005151;28;20217;-62
2023/05/19 12:17:23;;;;;;;15.40;7.63;;;11.00;82.00;;;;;;4997529;28;20583;-64
2023/05/19 12:19:51;;;;;;;14.00;8.30;;;11.20;82.60;;;;;;5007422;28;20215;-63
2023/05/19 12:22:19;;;;;;;16.27;8.50;;;11.10;82.20;;;;;;5005327;28;20676;-63
2023/05/19 12:24:47;;;;;;;12.43;7.53;;;11.10;82.20;;;;;;5002014;28;20551;-62
2023/05/19 12:27:25;;;;;;;14.60;8.13;;;11.10;82.20;;;;;;5004841;28;20538;-63
2023/05/19 12:29:54;;;;;;;12.67;8.20;;;11.10;82.10;;;;;;5000957;28;20203;-62
2023/05/19 12:32:27;;;;;;;16.17;8.20;;;10.90;81.70;;;;;;5004646;28;20197;-62
2023/05/19 12:34:59;;;;;;;12.03;8.03;;;10.90;81.90;;;;;;5005230;28;20259;-63
2023/05/19 12:37:29;;;;;;;15.90;8.90;;;10.80;82.00;;;;;;5001973;28;20288;-62
2023/05/19 12:39:57;;;;;;;18.30;9.27;;;10.80;82.00;;;;;;5001644;28;20229;-63
2023/05/19 12:42:30;;;;;;;17.00;9.17;;;10.80;82.10;;;;;;5004373;28;20197;-62
2023/05/19 12:44:59;;;;;;;13.60;7.67;;;10.70;81.90;;;;;;5008110;28;20215;-63
2023/05/19 12:47:34;;;;;;;11.70;7.13;;;10.70;81.80;;;;;;5001682;28;20232;-63
2023/05/19 12:50:08;;;;;;;12.97;7.17;;;10.70;81.30;;;;;;5008342;28;20242;-63
2023/05/19 12:52:47;;;;;;;12.27;7.00;;;10.70;80.20;;;;;;5004016;28;20211;-63
2023/05/19 12:55:15;;;;;;;12.97;7.10;;;10.70;78.80;;;;;;5011443;28;20266;-62
2023/05/19 12:57:58;;;;;;;14.53;7.57;;;10.80;79.00;;;;;;5004870;28;20232;-62